Time;durP1;ratioP1;P1;durP2;ratioP2;P2;SDS_P1;SDS_P2;PMS_P1;PMS_P2;Temp;Humidity;BMP_temperature;BMP_pressure;BME280_temperature;BME280_humidity;BME280_pressure;Samples;Min_cycle;Max_cycle;Signal;HPM_P1;HPM_P2
2023/03/02 00:01:18;;;;;;;10.25;5.05;;;;;;;-1.13;74.77;102341.97;4949911;28;20031;-75
2023/03/02 00:03:43;;;;;;;10.95;6.28;;;;;;;-1.15;75.19;102349.09;4948916;29;20039;-74
2023/03/02 00:06:09;;;;;;;8.95;5.20;;;;;;;-1.18;75.41;102343.75;4948954;29;20124;-74
2023/03/02 00:08:36;;;;;;;10.25;5.82;;;;;;;-1.23;75.75;102346.41;4949921;28;20024;-74
2023/03/02 00:11:01;;;;;;;13.52;5.65;;;;;;;-1.22;75.84;102334.84;4948709;28;20047;-74
2023/03/02 00:13:33;;;;;;;10.63;6.38;;;;;;;-1.18;75.45;102339.28;4933377;29;20047;-74
2023/03/02 00:15:58;;;;;;;15.43;6.10;;;;;;;-1.16;75.74;102348.22;4954089;28;20075;-72
2023/03/02 00:18:23;;;;;;;8.02;5.40;;;;;;;-1.16;75.78;102342.88;4952549;29;20035;-73
2023/03/02 00:20:49;;;;;;;10.35;5.60;;;;;;;-1.16;75.74;102350.00;4952238;28;20283;-73
2023/03/02 00:23:14;;;;;;;11.48;5.43;;;;;;;-1.14;75.61;102337.53;4952205;29;20050;-73
2023/03/02 00:25:40;;;;;;;9.15;5.72;;;;;;;-1.18;76.23;102341.97;4953803;28;20372;-72
2023/03/02 00:28:05;;;;;;;10.05;4.85;;;;;;;-1.18;76.04;102339.28;4953192;28;20039;-73
2023/03/02 00:30:30;;;;;;;8.90;5.50;;;;;;;-1.19;75.77;102339.31;4953415;28;20046;-72
2023/03/02 00:32:57;;;;;;;10.52;5.50;;;;;;;-1.21;75.79;102339.31;4952192;29;20371;-73
2023/03/02 00:35:24;;;;;;;15.27;5.93;;;;;;;-1.23;75.96;102342.88;4936510;29;20035;-73
2023/03/02 00:37:50;;;;;;;10.00;5.65;;;;;;;-1.21;75.69;102346.41;4952964;28;20423;-73
2023/03/02 00:40:15;;;;;;;10.55;5.80;;;;;;;-1.20;75.58;102342.88;4941750;29;20035;-72
2023/03/02 00:42:40;;;;;;;12.32;5.70;;;;;;;-1.20;75.34;102350.88;4953159;28;20050;-73
2023/03/02 00:45:06;;;;;;;10.65;5.85;;;;;;;-1.23;75.62;102348.19;4960354;28;20035;-73
2023/03/02 00:47:34;;;;;;;9.80;5.03;;;;;;;-1.24;75.67;102349.09;4950770;29;20036;-73
2023/03/02 00:50:00;;;;;;;9.52;4.63;;;;;;;-1.27;75.77;102347.31;4936251;29;20042;-73
2023/03/02 00:52:25;;;;;;;11.73;5.47;;;;;;;-1.31;75.52;102342.84;4953220;28;20075;-72
2023/03/02 00:54:51;;;;;;;7.93;5.63;;;;;;;-1.32;76.20;102341.06;4951448;28;20408;-73
2023/03/02 00:57:16;;;;;;;9.43;5.00;;;;;;;-1.35;75.74;102343.75;4951157;28;20517;-73
2023/03/02 00:59:42;;;;;;;10.90;5.47;;;;;;;-1.39;75.99;102334.84;4950467;28;20035;-73
2023/03/02 01:02:20;;;;;;;9.60;5.68;;;;;;;-1.46;76.08;102333.06;4951592;28;20347;-73
2023/03/02 01:04:47;;;;;;;13.73;5.75;;;;;;;-1.46;76.66;102334.84;4951532;29;20031;-74
2023/03/02 01:07:15;;;;;;;9.07;5.68;;;;;;;-1.56;76.80;102332.16;4951670;28;20028;-73
2023/03/02 01:09:42;;;;;;;11.15;5.72;;;;;;;-1.61;76.68;102328.59;4952236;28;20035;-73
2023/03/02 01:12:10;;;;;;;10.27;5.30;;;;;;;-1.58;76.70;102330.38;4953016;29;20038;-73
2023/03/02 01:14:42;;;;;;;9.60;5.30;;;;;;;-1.58;75.95;102333.94;4952061;28;20463;-73
2023/03/02 01:17:09;;;;;;;9.48;5.00;;;;;;;-1.58;75.93;102327.72;4952847;29;20047;-73
2023/03/02 01:19:35;;;;;;;12.07;5.18;;;;;;;-1.59;76.04;102333.91;4951546;29;20509;-73
2023/03/02 01:22:00;;;;;;;12.80;5.70;;;;;;;-1.64;76.99;102328.56;4952773;29;20035;-73
2023/03/02 01:24:26;;;;;;;10.50;5.20;;;;;;;-1.71;76.93;102320.59;4951544;28;20111;-73
2023/03/02 01:26:51;;;;;;;10.55;5.10;;;;;;;-1.78;77.59;102321.44;4952476;29;20179;-73
2023/03/02 01:29:17;;;;;;;9.73;5.30;;;;;;;-1.86;77.52;102318.78;4947059;29;20090;-73
2023/03/02 01:31:42;;;;;;;8.77;5.57;;;;;;;-1.91;78.06;102324.09;4952141;29;20172;-73
2023/03/02 01:34:08;;;;;;;11.27;5.45;;;;;;;-1.93;78.30;102331.19;4951248;29;20122;-73
2023/03/02 01:36:33;;;;;;;9.40;5.28;;;;;;;-1.99;78.44;102322.28;4951060;29;20032;-73
2023/03/02 01:38:59;;;;;;;9.98;5.75;;;;;;;-2.01;78.63;102326.72;4949599;29;20031;-73
2023/03/02 01:41:24;;;;;;;11.55;5.85;;;;;;;-2.04;79.21;102318.72;4951902;28;20046;-73
2023/03/02 01:43:50;;;;;;;13.63;6.07;;;;;;;-2.07;79.49;102314.25;4949987;28;20039;-73
2023/03/02 01:46:24;;;;;;;14.63;5.90;;;;;;;-2.11;79.60;102307.13;4969804;28;20078;-73
2023/03/02 01:49:01;;;;;;;10.73;5.75;;;;;;;-2.15;79.67;102311.56;4963187;28;20035;-72
2023/03/02 01:51:45;;;;;;;16.23;6.03;;;;;;;-2.17;80.15;102310.66;4950471;28;20039;-73
2023/03/02 01:54:21;;;;;;;14.18;6.25;;;;;;;-2.22;80.22;102304.44;4949094;28;20039;-73
2023/03/02 01:56:51;;;;;;;9.02;5.30;;;;;;;-2.14;80.33;102307.13;4949038;28;20418;-73
2023/03/02 01:59:20;;;;;;;12.02;5.95;;;;;;;-2.13;80.59;102304.47;4948782;28;20392;-73
2023/03/02 02:01:50;;;;;;;11.20;6.13;;;;;;;-2.12;80.76;102300.03;4948996;29;20471;-73
2023/03/02 02:04:16;;;;;;;10.77;5.97;;;;;;;-2.14;80.70;102305.34;4949113;28;20435;-73
2023/03/02 02:06:57;;;;;;;15.13;6.15;;;;;;;-2.18;81.04;102300.00;4948009;29;20037;-73
2023/03/02 02:09:25;;;;;;;11.75;5.85;;;;;;;-2.15;81.03;102300.88;4932146;28;20474;-73
2023/03/02 02:11:51;;;;;;;13.50;6.50;;;;;;;-2.11;81.14;102292.00;4945114;28;20039;-74
2023/03/02 02:14:16;;;;;;;14.98;6.75;;;;;;;-2.07;81.32;102298.25;4944929;29;20043;-73
2023/03/02 02:16:41;;;;;;;12.35;6.65;;;;;;;-2.03;81.42;102302.72;4936756;29;20027;-73
2023/03/02 02:20:05;;;;;;;14.52;7.15;;;;;;;-2.02;81.56;102311.59;4945774;28;20046;-73
2023/03/02 02:22:37;;;;;;;;;;;;;;;-2.02;79.09;102296.50;4866527;29;20055;-73
2023/03/02 02:25:15;;;;;;;10.93;6.32;;;;;;;-2.04;81.42;102298.28;4928238;29;20233;-74
2023/03/02 02:27:42;;;;;;;12.63;6.50;;;;;;;-2.09;82.25;102294.72;4906591;28;20537;-73
2023/03/02 02:30:10;;;;;;;15.30;7.07;;;;;;;-2.01;82.85;102294.72;4908384;28;20498;-73
2023/03/02 02:32:39;;;;;;;17.25;7.63;;;;;;;-1.99;83.09;102290.28;4912731;29;20030;-74
2023/03/02 02:35:14;;;;;;;15.27;7.53;;;;;;;-1.97;83.70;102285.84;4943896;29;20311;-74
2023/03/02 02:38:02;;;;;;;16.75;7.93;;;;;;;-2.03;83.17;102278.72;4902744;28;20039;-74
2023/03/02 02:40:57;;;;;;;16.85;7.53;;;;;;;-1.99;84.42;102282.28;4906499;29;20234;-74
2023/03/02 02:43:31;;;;;;;20.83;8.73;;;;;;;-2.01;84.65;102284.94;4922578;28;20043;-74
2023/03/02 02:45:57;;;;;;;23.20;9.77;;;;;;;-2.01;85.65;102278.72;4961861;28;20034;-72
2023/03/02 02:48:29;;;;;;;28.05;10.88;;;;;;;-2.08;86.03;102267.16;4910840;28;20745;-72
2023/03/02 02:51:00;;;;;;;23.85;9.45;;;;;;;-2.03;86.39;102276.06;4910989;28;20035;-73
2023/03/02 02:53:47;;;;;;;26.55;10.50;;;;;;;-2.03;86.41;102273.38;4916531;29;20499;-73
2023/03/02 02:56:14;;;;;;;27.17;10.90;;;;;;;-2.07;87.62;102271.59;4937365;28;20372;-73
2023/03/02 02:58:45;;;;;;;27.88;12.30;;;;;;;-2.04;89.39;102274.28;4900293;28;20051;-73
2023/03/02 03:01:14;;;;;;;34.95;13.57;;;;;;;-2.08;89.72;102268.03;4904092;28;20027;-73
2023/03/02 03:03:45;;;;;;;28.75;13.05;;;;;;;-2.04;89.87;102271.63;4917592;29;20035;-73
2023/03/02 03:06:17;;;;;;;29.65;12.70;;;;;;;-2.02;89.90;102272.50;4938503;28;20369;-74
2023/03/02 03:08:42;;;;;;;31.88;13.32;;;;;;;-2.03;90.89;102269.84;4906590;28;20708;-74
2023/03/02 03:11:13;;;;;;;33.20;13.80;;;;;;;-2.02;90.69;102276.94;4901938;28;20148;-74
2023/03/02 03:13:42;;;;;;;34.45;15.43;;;;;;;-2.05;91.66;102269.84;4906588;29;20244;-74
2023/03/02 03:16:12;;;;;;;37.00;13.95;;;;;;;-2.08;91.69;102272.50;4946960;28;20050;-74
2023/03/02 03:18:41;;;;;;;40.28;14.60;;;;;;;-2.08;91.91;102276.03;4905540;28;20089;-74
2023/03/02 03:21:06;;;;;;;39.72;15.45;;;;;;;-2.05;93.11;102272.50;4904948;29;20031;-73
2023/03/02 03:23:36;;;;;;;33.42;16.73;;;;;;;-2.06;93.41;102266.25;4905051;28;20392;-73
2023/03/02 03:26:04;;;;;;;44.55;18.15;;;;;;;-2.03;93.71;102268.06;4948689;28;20042;-73
2023/03/02 03:28:30;;;;;;;43.28;15.20;;;;;;;-2.02;93.79;102269.81;4904658;28;20732;-73
2023/03/02 03:30:56;;;;;;;44.00;18.35;;;;;;;-2.01;94.86;102257.38;4908160;28;20408;-74
2023/03/02 03:33:22;;;;;;;43.90;17.33;;;;;;;-2.01;93.82;102254.72;4910419;28;20316;-74
2023/03/02 03:35:47;;;;;;;40.60;16.98;;;;;;;-1.98;94.87;102263.63;4937329;29;20074;-74
2023/03/02 03:38:12;;;;;;;45.80;17.63;;;;;;;-1.98;95.43;102265.41;4933492;28;20039;-73
2023/03/02 03:40:38;;;;;;;43.03;17.25;;;;;;;-1.97;95.22;102261.84;4894394;29;20039;-74
2023/03/02 03:43:04;;;;;;;48.75;19.00;;;;;;;-1.98;95.29;102263.63;4901249;29;20054;-73
2023/03/02 03:45:30;;;;;;;38.40;16.13;;;;;;;-1.97;95.41;102260.06;4911075;29;20027;-74
2023/03/02 03:47:56;;;;;;;45.08;17.42;;;;;;;-1.97;95.41;102264.50;4930852;28;20046;-73
2023/03/02 03:50:22;;;;;;;42.92;17.92;;;;;;;-1.96;96.05;102258.28;4909216;29;20837;-74
2023/03/02 03:52:47;;;;;;;45.00;19.25;;;;;;;-1.98;95.69;102260.94;4908339;29;20222;-74
2023/03/02 03:55:18;;;;;;;46.30;18.98;;;;;;;-1.99;96.75;102267.19;4908976;29;20093;-73
2023/03/02 03:57:46;;;;;;;48.20;19.15;;;;;;;-2.00;96.59;102259.19;4942769;28;20420;-74
2023/03/02 04:00:15;;;;;;;46.10;18.42;;;;;;;-2.01;96.39;102263.59;4906821;28;20097;-74
2023/03/02 04:02:45;;;;;;;45.60;18.17;;;;;;;-2.03;96.69;102268.06;4911721;29;20737;-74
2023/03/02 04:05:11;;;;;;;44.58;17.45;;;;;;;-2.04;96.55;102271.63;4894802;28;20031;-73
2023/03/02 04:07:38;;;;;;;43.13;18.65;;;;;;;-2.05;96.95;102275.19;4935212;29;20502;-74
2023/03/02 04:10:06;;;;;;;50.67;20.67;;;;;;;-2.06;97.61;102273.38;4908031;28;20489;-73
2023/03/02 04:12:36;;;;;;;46.05;19.13;;;;;;;-2.13;97.01;102263.59;4903931;28;20035;-74
2023/03/02 04:15:04;;;;;;;42.70;17.13;;;;;;;-2.08;96.89;102267.16;4912833;28;20027;-74
2023/03/02 04:17:30;;;;;;;50.88;18.42;;;;;;;-2.16;97.00;102259.13;4952229;29;20054;-73
2023/03/02 04:19:55;;;;;;;43.97;18.70;;;;;;;-2.15;96.79;102268.00;4913202;29;20488;-73
2023/03/02 04:22:21;;;;;;;53.15;18.92;;;;;;;-2.17;97.25;102260.03;4904652;29;20035;-74
2023/03/02 04:24:48;;;;;;;53.00;19.88;;;;;;;-2.14;98.06;102264.47;4905857;29;20035;-74
2023/03/02 04:27:15;;;;;;;51.53;19.88;;;;;;;-2.15;97.79;102266.22;4939094;29;20439;-74
2023/03/02 04:29:42;;;;;;;49.05;19.48;;;;;;;-2.15;97.76;102257.34;4924336;28;20038;-74
2023/03/02 04:32:08;;;;;;;54.67;19.60;;;;;;;-2.20;97.53;102261.78;4906343;29;20510;-74
2023/03/02 04:34:36;;;;;;;47.90;19.10;;;;;;;-2.23;97.37;102272.44;4890318;29;20316;-74
2023/03/02 04:37:02;;;;;;;44.63;17.55;;;;;;;-2.28;97.73;102264.44;4914979;29;20526;-73
2023/03/02 04:39:28;;;;;;;47.85;19.08;;;;;;;-2.31;97.38;102267.97;4932955;28;20186;-73
2023/03/02 04:41:54;;;;;;;42.70;16.67;;;;;;;-2.34;97.42;102275.94;4908956;29;20118;-73
2023/03/02 04:44:20;;;;;;;45.83;17.70;;;;;;;-2.40;97.59;102273.25;4910461;28;20897;-73
2023/03/02 04:46:46;;;;;;;50.72;19.95;;;;;;;-2.38;97.35;102271.50;4939800;28;20370;-73
2023/03/02 04:49:13;;;;;;;53.45;20.85;;;;;;;-2.42;98.03;102258.19;4943826;29;20167;-73
2023/03/02 04:51:41;;;;;;;47.20;18.38;;;;;;;-2.37;97.48;102264.41;4895139;29;20086;-73
2023/03/02 04:54:12;;;;;;;51.22;19.88;;;;;;;-2.36;97.73;102266.19;4890130;29;20215;-73
2023/03/02 04:56:38;;;;;;;41.72;17.45;;;;;;;-2.33;98.26;102259.09;4913664;28;20534;-72
2023/03/02 04:59:03;;;;;;;54.13;19.80;;;;;;;-2.31;98.12;102259.97;4917318;28;20051;-73
2023/03/02 05:01:28;;;;;;;46.88;19.88;;;;;;;-2.27;98.07;102262.66;4911462;29;20381;-74
2023/03/02 05:03:54;;;;;;;49.05;19.02;;;;;;;-2.27;97.85;102263.53;4916411;28;20043;-75
2023/03/02 05:06:20;;;;;;;49.08;19.90;;;;;;;-2.32;97.74;102268.88;4906786;29;20449;-74
2023/03/02 05:08:46;;;;;;;50.50;17.92;;;;;;;-2.36;97.98;102259.06;4944837;28;20208;-74
2023/03/02 05:11:20;;;;;;;43.65;18.60;;;;;;;-2.37;98.47;102270.63;4915599;28;20639;-74
2023/03/02 05:13:55;;;;;;;43.38;17.73;;;;;;;-2.39;98.71;102276.81;4908694;28;20663;-74
2023/03/02 05:16:22;;;;;;;44.10;17.27;;;;;;;-2.37;98.72;102275.06;4906648;29;20479;-74
2023/03/02 05:18:47;;;;;;;47.08;19.17;;;;;;;-2.34;98.98;102281.28;4942278;28;20031;-74
2023/03/02 05:21:14;;;;;;;51.75;20.63;;;;;;;-2.37;99.06;102267.97;4926055;29;20114;-74
2023/03/02 05:23:40;;;;;;;52.17;18.48;;;;;;;-2.36;99.12;102271.50;4906972;29;20448;-74
2023/03/02 05:26:06;;;;;;;45.10;18.48;;;;;;;-2.41;99.36;102260.84;4905124;28;20098;-74
2023/03/02 05:28:32;;;;;;;51.13;18.80;;;;;;;-2.38;99.22;102273.25;4931088;28;20043;-73
2023/03/02 05:30:58;;;;;;;52.90;20.25;;;;;;;-2.37;99.95;102275.97;4934915;28;20090;-74
2023/03/02 05:33:23;;;;;;;51.00;19.02;;;;;;;-2.37;99.35;102273.28;4909308;29;20387;-74
2023/03/02 05:35:49;;;;;;;56.25;19.95;;;;;;;-2.37;99.43;102273.28;4903349;29;20761;-73
2023/03/02 05:38:14;;;;;;;54.63;20.23;;;;;;;-2.36;99.41;102267.06;4939221;28;20387;-72
2023/03/02 05:40:43;;;;;;;51.22;20.65;;;;;;;-2.37;99.61;102264.41;4950636;28;20359;-72
2023/03/02 05:43:14;;;;;;;44.35;18.85;;;;;;;-2.34;99.64;102270.63;4951113;28;20047;-74
2023/03/02 05:45:40;;;;;;;55.45;19.13;;;;;;;-2.35;99.83;102271.50;4950166;28;20038;-73
2023/03/02 05:48:05;;;;;;;51.83;20.27;;;;;;;-2.34;100.00;102270.63;4950658;29;20486;-74
2023/03/02 05:50:32;;;;;;;50.38;20.00;;;;;;;-2.34;100.00;102275.94;4952015;29;20566;-74
2023/03/02 05:52:59;;;;;;;56.88;21.92;;;;;;;-2.33;100.00;102269.75;4950487;28;20047;-74
2023/03/02 05:55:25;;;;;;;56.70;20.33;;;;;;;-2.33;100.00;102274.19;4933726;29;20163;-74
2023/03/02 05:57:50;;;;;;;55.25;18.55;;;;;;;-2.36;100.00;102266.19;4951013;28;20606;-73
2023/03/02 06:00:17;;;;;;;56.03;20.85;;;;;;;-2.38;99.80;102278.59;4950267;28;20035;-73
2023/03/02 06:02:42;;;;;;;53.30;18.55;;;;;;;-2.44;99.90;102270.59;4950423;29;20452;-72
2023/03/02 06:05:11;;;;;;;55.05;19.50;;;;;;;-2.45;100.00;102271.47;4934803;29;20136;-73
2023/03/02 06:07:36;;;;;;;55.17;19.88;;;;;;;-2.45;100.00;102261.69;4946238;29;20062;-73
2023/03/02 06:10:06;;;;;;;54.90;19.00;;;;;;;-2.45;100.00;102268.81;4951366;28;20069;-74
2023/03/02 06:12:31;;;;;;;61.80;20.20;;;;;;;-2.45;100.00;102259.03;4951027;28;20035;-74
2023/03/02 06:14:58;;;;;;;56.67;19.20;;;;;;;-2.47;100.00;102266.16;4939894;29;20098;-73
2023/03/02 06:17:23;;;;;;;55.20;19.92;;;;;;;-2.49;100.00;102259.91;4951380;29;20045;-74
2023/03/02 06:19:49;;;;;;;59.55;20.13;;;;;;;-2.49;100.00;102264.34;4950210;29;20225;-74
2023/03/02 06:22:14;;;;;;;54.20;20.70;;;;;;;-2.47;100.00;102273.22;4951335;28;20070;-74
2023/03/02 06:24:40;;;;;;;54.70;20.83;;;;;;;-2.46;100.00;102275.91;4951069;28;20066;-74
2023/03/02 06:27:05;;;;;;;58.33;19.42;;;;;;;-2.50;100.00;102271.44;4951204;29;20466;-75
2023/03/02 06:29:30;;;;;;;53.45;20.65;;;;;;;-2.51;100.00;102277.66;4949106;28;20039;-74
2023/03/02 06:31:56;;;;;;;56.03;19.25;;;;;;;-2.48;100.00;102287.44;4950354;29;20039;-74
2023/03/02 06:34:21;;;;;;;58.45;19.80;;;;;;;-2.47;100.00;102279.47;4951064;29;20136;-74
2023/03/02 06:36:46;;;;;;;58.28;19.83;;;;;;;-2.52;100.00;102272.31;4948780;29;20030;-74
2023/03/02 06:39:15;;;;;;;63.95;21.17;;;;;;;-2.52;100.00;102283.84;4949618;29;20494;-74
2023/03/02 06:41:42;;;;;;;57.38;19.10;;;;;;;-2.50;100.00;102289.22;4950949;28;20491;-74
2023/03/02 06:44:08;;;;;;;66.88;20.88;;;;;;;-2.48;100.00;102290.09;4949161;28;20046;-73
2023/03/02 06:46:33;;;;;;;59.33;21.02;;;;;;;-2.47;100.00;102287.47;4970265;28;20042;-74
2023/03/02 06:48:59;;;;;;;49.78;18.98;;;;;;;-2.50;100.00;102281.22;4970616;28;20041;-73
2023/03/02 06:51:24;;;;;;;59.08;18.42;;;;;;;-2.43;100.00;102293.66;4966063;28;20581;-73
2023/03/02 06:53:49;;;;;;;57.78;20.67;;;;;;;-2.39;100.00;102291.03;4950555;29;20034;-73
2023/03/02 06:56:15;;;;;;;60.47;20.50;;;;;;;-2.39;100.00;102293.69;4950689;28;20035;-74
2023/03/02 06:58:40;;;;;;;61.80;19.40;;;;;;;-2.40;100.00;102291.03;4939394;29;20143;-74
2023/03/02 07:01:06;;;;;;;57.72;20.67;;;;;;;-2.36;100.00;102296.38;4950466;28;20074;-74
2023/03/02 07:03:32;;;;;;;55.65;20.42;;;;;;;-2.31;100.00;102297.28;4950884;29;20114;-74
2023/03/02 07:05:58;;;;;;;50.45;21.75;;;;;;;-2.33;100.00;102291.06;4949892;29;20049;-74
2023/03/02 07:08:23;;;;;;;60.97;19.55;;;;;;;-2.29;100.00;102302.63;4949101;29;20055;-74
2023/03/02 07:10:49;;;;;;;56.83;19.05;;;;;;;-2.28;100.00;102304.41;4948527;28;20043;-73
2023/03/02 07:13:14;;;;;;;56.65;20.98;;;;;;;-2.17;100.00;102309.78;4947466;28;20053;-74
2023/03/02 07:15:39;;;;;;;57.28;20.60;;;;;;;-2.09;100.00;102306.25;4949223;28;20047;-73
2023/03/02 07:18:05;;;;;;;48.50;19.30;;;;;;;-2.05;100.00;102301.84;4949404;29;20047;-73
2023/03/02 07:20:30;;;;;;;53.65;20.08;;;;;;;-1.99;100.00;102304.50;4950573;29;20502;-74
2023/03/02 07:22:56;;;;;;;51.95;18.38;;;;;;;-1.87;99.29;102309.84;4948816;28;20086;-74
2023/03/02 07:25:21;;;;;;;64.50;18.95;;;;;;;-1.75;99.28;102310.78;4946627;28;20031;-74
2023/03/02 07:27:46;;;;;;;60.03;20.05;;;;;;;-1.46;98.80;102302.81;4949485;28;20046;-73
2023/03/02 07:30:13;;;;;;;55.58;16.98;;;;;;;-0.90;96.86;102302.78;4948584;28;20031;-71
2023/03/02 07:32:39;;;;;;;54.80;18.90;;;;;;;-0.23;94.27;102295.44;4948799;29;20043;-72
2023/03/02 07:35:05;;;;;;;50.05;18.25;;;;;;;0.23;91.42;102302.34;4950400;28;20398;-72
2023/03/02 07:37:30;;;;;;;49.13;17.88;;;;;;;0.72;89.67;102299.28;4950294;29;20035;-72
2023/03/02 07:39:55;;;;;;;49.80;17.20;;;;;;;0.99;88.15;102306.19;4950034;28;20043;-72
2023/03/02 07:42:21;;;;;;;51.60;18.98;;;;;;;1.55;85.89;102303.84;4950130;29;20039;-72
2023/03/02 07:44:53;;;;;;;50.72;18.98;;;;;;;1.98;82.81;102300.59;4948664;28;20491;-72
2023/03/02 07:47:19;;;;;;;49.25;19.33;;;;;;;1.79;83.68;102299.97;4949970;29;20069;-72
2023/03/02 07:49:44;;;;;;;44.20;17.55;;;;;;;1.96;82.24;102299.75;4948116;28;20535;-72
2023/03/02 07:52:10;;;;;;;43.70;15.60;;;;;;;1.83;82.10;102303.50;4948821;29;20424;-72
2023/03/02 07:54:35;;;;;;;41.65;17.35;;;;;;;1.64;83.22;102303.72;4932208;28;20035;-72
2023/03/02 07:57:01;;;;;;;43.22;16.52;;;;;;;1.46;83.80;102301.25;4949900;28;20502;-72
2023/03/02 07:59:27;;;;;;;50.47;18.85;;;;;;;1.19;84.16;102307.78;4949760;28;20399;-73
2023/03/02 08:01:53;;;;;;;49.47;16.80;;;;;;;0.89;85.30;102298.28;4948646;29;20138;-73
2023/03/02 08:04:18;;;;;;;48.65;18.08;;;;;;;0.75;86.22;102303.75;4950025;29;20042;-74
2023/03/02 08:06:44;;;;;;;47.08;17.88;;;;;;;0.68;87.19;102294.84;4949993;29;20479;-74
2023/03/02 08:09:09;;;;;;;39.35;16.15;;;;;;;0.70;87.81;102305.53;4949357;28;20388;-74
2023/03/02 08:11:34;;;;;;;47.88;18.83;;;;;;;0.68;87.92;102297.53;4948119;28;20487;-74
2023/03/02 08:14:01;;;;;;;50.83;17.83;;;;;;;0.64;88.26;102305.59;4949203;28;20097;-73
2023/03/02 08:16:26;;;;;;;41.47;17.30;;;;;;;0.60;87.53;102301.16;4947516;29;20032;-74
2023/03/02 08:18:52;;;;;;;39.83;17.25;;;;;;;0.59;87.93;102305.63;4948653;29;20130;-74
2023/03/02 08:21:20;;;;;;;45.30;16.83;;;;;;;0.59;87.27;102304.75;4949997;29;20130;-74
2023/03/02 08:23:46;;;;;;;46.45;18.65;;;;;;;0.62;88.11;102302.94;4949566;28;20097;-74
2023/03/02 08:26:13;;;;;;;43.40;17.23;;;;;;;0.63;86.02;102302.03;4946706;28;20062;-74
2023/03/02 08:28:38;;;;;;;38.40;15.18;;;;;;;0.66;85.26;102306.50;4947140;29;20043;-73
2023/03/02 08:31:05;;;;;;;39.10;16.30;;;;;;;0.69;84.99;102293.06;4949175;28;20050;-73
2023/03/02 08:33:31;;;;;;;39.58;16.38;;;;;;;0.72;85.31;102296.63;4950121;29;20043;-74
2023/03/02 08:35:59;;;;;;;40.63;16.13;;;;;;;0.81;85.62;102301.00;4951102;28;20062;-75
2023/03/02 08:38:25;;;;;;;43.40;15.60;;;;;;;0.96;84.54;102303.53;4951611;28;20043;-74
2023/03/02 08:40:51;;;;;;;36.28;14.95;;;;;;;1.06;83.92;102303.44;4953342;28;20035;-75
2023/03/02 08:43:22;;;;;;;38.50;16.25;;;;;;;1.17;83.17;102307.81;4939405;29;20527;-75
2023/03/02 08:45:52;;;;;;;35.70;15.07;;;;;;;1.22;82.33;102299.72;4953615;28;20039;-74
2023/03/02 08:48:18;;;;;;;36.35;15.25;;;;;;;1.34;81.72;102299.59;4970249;28;20085;-74
2023/03/02 08:50:43;;;;;;;34.25;14.57;;;;;;;1.51;81.00;102299.41;4951480;29;20079;-75
2023/03/02 08:53:09;;;;;;;42.88;16.02;;;;;;;1.62;81.22;102292.09;4951558;29;20498;-74
2023/03/02 08:55:35;;;;;;;36.10;14.93;;;;;;;1.73;80.07;102278.59;4951609;28;20436;-75
2023/03/02 08:58:02;;;;;;;32.08;13.07;;;;;;;1.89;79.12;102290.88;4946908;28;20055;-75
2023/03/02 09:00:28;;;;;;;33.05;13.63;;;;;;;1.98;78.47;102292.56;4934296;29;20042;-74
2023/03/02 09:02:53;;;;;;;36.13;13.73;;;;;;;2.13;78.22;102284.28;4933855;29;20044;-75
2023/03/02 09:05:18;;;;;;;34.72;14.60;;;;;;;2.23;76.36;102285.91;4932682;29;20176;-75
2023/03/02 09:07:44;;;;;;;40.15;13.48;;;;;;;2.29;75.69;102284.97;4946939;29;20063;-75
2023/03/02 09:10:09;;;;;;;31.15;12.77;;;;;;;2.33;76.48;102281.28;4933602;29;20043;-75
2023/03/02 09:12:35;;;;;;;30.50;13.23;;;;;;;2.41;74.55;102283.88;4933408;29;20098;-75
2023/03/02 09:15:00;;;;;;;31.90;12.27;;;;;;;2.46;72.91;102279.31;4946152;29;20495;-75
2023/03/02 09:17:26;;;;;;;31.88;12.38;;;;;;;2.47;72.94;102276.63;4933979;29;20028;-76
2023/03/02 09:19:51;;;;;;;31.85;12.02;;;;;;;2.53;74.30;102273.84;4932195;29;20055;-76
2023/03/02 09:22:17;;;;;;;29.17;11.90;;;;;;;2.60;72.16;102277.28;4932082;29;20066;-78
2023/03/02 09:24:42;;;;;;;24.70;11.68;;;;;;;2.70;71.22;102286.09;4933216;29;20149;-76
2023/03/02 09:27:08;;;;;;;28.33;11.75;;;;;;;2.72;72.01;102279.78;4948335;29;20102;-75
2023/03/02 09:29:33;;;;;;;28.25;11.32;;;;;;;2.75;71.39;102274.38;4929711;29;20202;-76
2023/03/02 09:31:58;;;;;;;25.95;12.32;;;;;;;2.79;70.21;102278.75;4932563;29;20040;-75
2023/03/02 09:34:24;;;;;;;30.85;12.13;;;;;;;2.81;71.21;102276.94;4948184;29;20043;-75
2023/03/02 09:36:49;;;;;;;29.95;11.85;;;;;;;2.96;71.75;102277.59;4933109;29;20531;-76
2023/03/02 09:39:14;;;;;;;24.10;12.18;;;;;;;3.03;70.03;102273.84;4933241;29;20448;-77
2023/03/02 09:41:48;;;;;;;27.67;11.55;;;;;;;3.05;70.83;102263.97;4933585;29;20448;-78
2023/03/02 09:44:43;;;;;;;26.25;11.38;;;;;;;3.13;71.63;102264.72;4932728;29;20471;-78
2023/03/02 09:47:35;;;;;;;24.30;11.95;;;;;;;3.18;69.13;102270.03;4933170;29;20490;-79
2023/03/02 09:50:22;;;;;;;26.10;11.30;;;;;;;3.26;69.90;102270.75;4931924;29;20036;-78
2023/03/02 09:53:14;;;;;;;24.48;11.90;;;;;;;3.31;68.17;102258.09;4933489;29;20047;-78
2023/03/02 09:55:39;;;;;;;27.55;11.10;;;;;;;3.40;67.29;102270.47;4932147;29;20047;-78
2023/03/02 09:58:14;;;;;;;24.50;12.23;;;;;;;3.48;68.77;102264.03;4946694;28;20047;-78
2023/03/02 10:00:42;;;;;;;25.27;12.10;;;;;;;3.57;66.38;102260.25;4948306;28;20035;-79
2023/03/02 10:03:26;;;;;;;25.67;11.10;;;;;;;3.68;67.82;102262.72;4947886;29;20035;-79
2023/03/02 10:05:54;;;;;;;23.00;10.05;;;;;;;3.73;66.30;102263.50;4947838;28;20044;-80
2023/03/02 10:08:28;;;;;;;22.17;9.85;;;;;;;3.86;65.13;102269.53;4933541;29;20040;-79
2023/03/02 10:10:56;;;;;;;21.67;9.82;;;;;;;3.92;63.85;102269.41;4933283;29;20040;-80
2023/03/02 10:13:22;;;;;;;24.23;11.68;;;;;;;3.98;65.70;102258.50;4947649;28;20483;-79
2023/03/02 10:16:03;;;;;;;24.17;11.48;;;;;;;4.06;64.13;102270.88;4945270;29;20067;-79
2023/03/02 10:18:36;;;;;;;24.67;11.65;;;;;;;4.11;64.77;102262.69;4932019;29;20144;-79
2023/03/02 10:21:24;;;;;;;24.63;10.75;;;;;;;4.22;65.75;102265.13;4945536;29;20044;-81
2023/03/02 10:24:08;;;;;;;18.35;8.57;;;;;;;4.25;64.59;102260.56;4947563;29;20130;-80
2023/03/02 10:26:41;;;;;;;20.05;8.38;;;;;;;4.41;64.14;102269.16;4946528;29;20091;-80
2023/03/02 10:29:37;;;;;;;20.35;9.68;;;;;;;4.48;63.85;102265.41;4932551;29;20114;-79
2023/03/02 10:32:13;;;;;;;19.83;8.85;;;;;;;4.50;61.66;102262.66;4931453;29;20035;-79
2023/03/02 10:34:39;;;;;;;22.75;10.57;;;;;;;4.52;60.67;102261.72;4932987;29;20444;-80
2023/03/02 10:37:30;;;;;;;19.27;9.10;;;;;;;4.63;61.33;102264.13;4931354;29;20038;-78
2023/03/02 10:39:56;;;;;;;19.02;9.18;;;;;;;4.73;60.56;102259.41;4924597;29;20044;-80
2023/03/02 10:42:33;;;;;;;19.20;8.98;;;;;;;4.88;63.04;102260.81;4947253;28;20399;-80
2023/03/02 10:45:13;;;;;;;26.67;10.43;;;;;;;5.03;60.92;102253.19;4943391;29;20062;-79
2023/03/02 10:47:38;;;;;;;19.48;9.27;;;;;;;5.14;61.05;102255.63;4932502;29;20114;-78
2023/03/02 10:50:19;;;;;;;17.52;8.75;;;;;;;5.23;59.03;102249.97;4947046;28;20118;-78
2023/03/02 10:52:48;;;;;;;20.27;8.80;;;;;;;5.30;58.63;102247.97;4932300;29;20035;-79
2023/03/02 10:55:14;;;;;;;19.95;9.18;;;;;;;5.31;57.71;102245.22;4932240;29;20024;-79
2023/03/02 10:57:42;;;;;;;18.50;8.40;;;;;;;5.31;58.75;102247.91;4945767;28;20440;-79
2023/03/02 11:00:24;;;;;;;18.85;9.77;;;;;;;5.31;60.57;102247.03;4946736;28;20570;-79
2023/03/02 11:02:52;;;;;;;21.67;9.73;;;;;;;5.40;60.66;102246.78;4947120;29;20035;-79
2023/03/02 11:05:28;;;;;;;18.80;9.00;;;;;;;5.53;60.03;102245.50;4946722;28;20032;-79
2023/03/02 11:07:55;;;;;;;21.75;9.73;;;;;;;5.68;58.40;102244.16;4930713;29;20047;-79
2023/03/02 11:10:24;;;;;;;22.10;10.80;;;;;;;5.77;56.52;102238.50;4930603;29;20098;-80
2023/03/02 11:12:51;;;;;;;18.75;10.48;;;;;;;5.86;57.28;102231.94;4931541;29;20052;-78
2023/03/02 11:15:33;;;;;;;20.98;10.15;;;;;;;5.98;57.93;102228.91;4931759;29;20036;-79
2023/03/02 11:18:23;;;;;;;22.38;9.80;;;;;;;6.03;57.84;102234.16;4947254;29;20147;-80
2023/03/02 11:20:52;;;;;;;18.73;9.32;;;;;;;6.01;55.80;102228.78;4932022;29;20047;-79